Home   Weather   Siberia   Past weeks
Flag for Russia

Past Weather in Siberia, Russia — Yesterday and Last 2 Weeks

Currently: 64 °F. Clear. (Weather station: Bratsk / Irkutsk, Russia). See more current weather

Past Weather in Siberia — Graph

°F

Siberia Temperature Yesterday

Maximum temperature yesterday: 72 °F (at 12:00 pm)
Minimum temperature yesterday: 57 °F (at 4:00 am)
Average temperature yesterday: 64 °F

High & Low Weather Summary for the Past Weeks

 TemperatureHumidityPressure
High88 °F (Jun 27, 1:00 pm)100% (Jun 22, 3:00 am)29.86 "Hg (Jun 22, 3:00 am)
Low45 °F (Jun 22, 3:00 am)31% (Jun 27, 2:00 pm)29.47 "Hg (Jun 28, 8:30 am)
Average65 °F71%29.66 "Hg
* Reported Jun 21 9:00 pm — Jul 6 9:00 pm, Siberia. Weather by CustomWeather, © 2022

Note: Actual official high and low records may vary slightly from our data, if they occured in-between our weather recording intervals... More about our weather records

Siberia Weather History for the Previous 24 Hours

Scroll right to see more
 ConditionsComfort  
Time TempWeatherWind HumidityBarometerVisibility
9:00 pm
Wed, Jul 6
64 °FClear.3 mph68%29.59 "HgN/A
8:30 pm68 °FClear.3 mph60%29.59 "HgN/A
8:00 pm70 °FClear.3 mph60%29.59 "HgN/A
7:30 pm72 °FClear.6 mph53%29.59 "HgN/A
7:00 pm73 °FClear.6 mph50%29.59 "HgN/A
6:00 pm75 °FClear.6 mph47%29.59 "HgN/A
5:30 pm75 °FClear.6 mph47%29.59 "HgN/A
5:00 pm75 °FClear.8 mph44%29.59 "HgN/A
4:30 pm77 °FClear.3 mph36%29.56 "HgN/A
4:00 pm77 °FClear.6 mph42%29.56 "HgN/A
3:30 pm77 °FClear.6 mph36%29.56 "HgN/A
3:00 pm75 °FClear.3 mph41%29.59 "HgN/A
2:30 pm75 °FClear.6 mph44%29.59 "HgN/A
2:00 pm77 °FClear.6 mph44%29.59 "HgN/A
1:30 pm75 °FScattered clouds.8 mph47%29.59 "HgN/A
1:00 pm75 °FScattered clouds.6 mph47%29.59 "HgN/A
12:00 pm73 °FScattered clouds.6 mph50%29.62 "HgN/A
11:30 am73 °FPassing clouds.6 mph53%29.62 "HgN/A
11:00 am72 °FPassing clouds.6 mph57%29.62 "HgN/A
10:30 am72 °FClear.6 mph57%29.62 "HgN/A
10:00 am70 °FClear.6 mph60%29.62 "HgN/A
9:30 am70 °FClear.6 mph57%29.65 "HgN/A
9:00 am70 °FClear.6 mph60%29.65 "HgN/A
8:30 am68 °FClear.3 mph64%29.65 "HgN/A
8:00 am66 °FClear.3 mph68%29.65 "HgN/A
6:30 am59 °FClear.3 mph88%29.65 "HgN/A
6:00 am61 °FClear.1 mph83%29.65 "HgN/A
5:30 am59 °FClear.3 mph88%29.65 "HgN/A
5:00 am55 °FClear.3 mph94%29.65 "HgN/A
4:30 am55 °FClear.3 mph94%29.65 "HgN/A
4:00 am52 °FClear.6 mph100%29.65 "HgN/A
3:00 am52 °FClear.1 mph100%29.65 "HgN/A
2:30 am52 °FClear.3 mph100%29.65 "HgN/A
2:00 am52 °FClear.1 mph94%29.65 "HgN/A
1:30 am55 °FClear.No wind94%29.65 "HgN/A
1:00 am55 °FClear.1 mph94%29.68 "HgN/A
12:00 am54 °FClear.1 mph94%29.68 "HgN/A
11:30 pm
Tue, Jul 5
57 °FClear.No wind82%29.68 "HgN/A
11:00 pm57 °FClear.No wind82%29.68 "HgN/A
10:30 pm57 °FClear.1 mph88%29.68 "HgN/A
10:00 pm59 °FClear.No wind82%29.68 "HgN/A
Weather by CustomWeather, © 2022

See weather overview